Time;durP1;ratioP1;P1;durP2;ratioP2;P2;SDS_P1;SDS_P2;PMS_P1;PMS_P2;Temp;Humidity;BMP_temperature;BMP_pressure;BME280_temperature;BME280_humidity;BME280_pressure;Samples;Min_cycle;Max_cycle;Signal;HPM_P1;HPM_P2
2023/09/16 00:00:32;;;;;;;3.07;2.50;;;;;;;13.82;87.93;101331.34;5014603;28;20392;-80
2023/09/16 00:02:58;;;;;;;4.57;2.83;;;;;;;13.87;87.67;101332.13;5015524;28;20033;-80
2023/09/16 00:05:23;;;;;;;2.60;2.33;;;;;;;13.84;87.93;101324.38;5014427;28;20026;-80
2023/09/16 00:07:48;;;;;;;2.87;2.30;;;;;;;13.85;87.81;101328.69;5015441;28;20034;-80
2023/09/16 00:10:14;;;;;;;2.73;2.23;;;;;;;13.81;87.73;101321.81;5015071;28;20032;-81
2023/09/16 00:12:39;;;;;;;2.77;2.40;;;;;;;13.84;88.15;101326.97;5014601;28;20072;-80
2023/09/16 00:15:05;;;;;;;4.30;2.40;;;;;;;13.85;88.28;101330.44;5015108;28;20034;-80
2023/09/16 00:17:30;;;;;;;2.67;2.30;;;;;;;13.83;87.98;101327.03;5015501;28;20030;-80
2023/09/16 00:19:56;;;;;;;2.30;2.10;;;;;;;13.79;88.07;101326.19;5014700;28;20440;-80
2023/09/16 00:22:21;;;;;;;2.37;2.17;;;;;;;13.80;88.21;101332.28;5014875;28;20026;-80
2023/09/16 00:24:46;;;;;;;3.40;2.60;;;;;;;13.80;88.06;101343.56;5015357;28;20022;-80
2023/09/16 00:27:12;;;;;;;3.33;2.70;;;;;;;13.84;88.01;101341.78;5014145;28;20038;-81
2023/09/16 00:29:37;;;;;;;4.37;2.67;;;;;;;13.84;88.04;101344.38;5015057;28;20100;-80
2023/09/16 00:32:06;;;;;;;2.80;2.50;;;;;;;13.85;87.94;101343.47;5014682;28;20026;-80
2023/09/16 00:34:31;;;;;;;2.75;2.55;;;;;;;13.83;88.06;101345.28;5014356;28;20028;-80
2023/09/16 00:36:56;;;;;;;2.97;2.40;;;;;;;13.77;88.32;101348.88;5015089;28;20022;-80
2023/09/16 00:39:26;;;;;;;3.50;2.67;;;;;;;13.75;88.17;101337.59;5014696;28;20026;-80
2023/09/16 00:41:52;;;;;;;2.90;2.42;;;;;;;13.71;88.28;101344.63;5013850;28;20037;-80
2023/09/16 00:44:17;;;;;;;2.80;2.50;;;;;;;13.69;88.36;101341.19;5014481;28;20475;-80
2023/09/16 00:46:42;;;;;;;3.10;2.60;;;;;;;13.63;88.37;101333.47;5014664;28;20044;-80
2023/09/16 00:49:09;;;;;;;2.90;2.50;;;;;;;13.64;88.36;101340.41;5013652;28;20113;-80
2023/09/16 00:51:34;;;;;;;3.92;2.78;;;;;;;13.62;88.30;101331.78;5014417;28;20058;-80
2023/09/16 00:54:01;;;;;;;3.43;2.90;;;;;;;13.58;88.51;101335.34;5014632;28;20124;-80
2023/09/16 00:56:27;;;;;;;;;;;;;;;13.55;88.58;101327.56;5013197;28;20061;-80
2023/09/16 00:58:54;;;;;;;3.95;2.60;;;;;;;13.49;88.42;101331.16;5014367;28;19917;-80
2023/09/16 01:01:22;;;;;;;3.75;2.70;;;;;;;13.40;88.57;101321.75;5013784;28;20029;-80
2023/09/16 01:03:48;;;;;;;2.92;2.58;;;;;;;13.38;88.74;101317.44;5015035;28;20093;-80
2023/09/16 01:06:17;;;;;;;2.90;2.60;;;;;;;13.31;88.77;101308.03;5014490;28;20426;-80
2023/09/16 01:08:47;;;;;;;3.28;2.67;;;;;;;13.30;88.81;101307.16;5014282;28;20088;-80
2023/09/16 01:11:12;;;;;;;3.05;2.65;;;;;;;13.26;88.69;101306.34;5014486;28;20065;-80
2023/09/16 01:13:39;;;;;;;3.03;2.67;;;;;;;13.27;88.87;101307.22;5014449;28;20030;-80
2023/09/16 01:16:30;;;;;;;3.67;2.70;;;;;;;13.26;88.91;101308.97;5013380;28;20108;-80
2023/09/16 01:19:09;;;;;;;2.95;2.65;;;;;;;13.22;88.85;101302.13;5014178;28;20030;-80
2023/09/16 01:21:35;;;;;;;4.80;2.90;;;;;;;13.22;89.09;101307.31;5014559;28;20025;-80
2023/09/16 01:24:18;;;;;;;4.63;3.00;;;;;;;13.19;89.18;101302.16;5013671;28;20112;-81
2023/09/16 01:26:47;;;;;;;3.45;2.85;;;;;;;13.19;89.18;101301.28;5014164;28;20038;-80
2023/09/16 01:29:13;;;;;;;3.38;2.85;;;;;;;13.16;89.05;101302.22;5014336;28;20367;-80
2023/09/16 01:31:39;;;;;;;;;;;;;;;13.18;89.12;101304.78;5014634;28;20022;-80
2023/09/16 01:34:13;;;;;;;3.67;2.90;;;;;;;13.14;89.10;101309.19;5015233;28;20016;-80
2023/09/16 01:36:40;;;;;;;4.68;2.80;;;;;;;13.14;89.07;101311.81;5014792;28;20030;-80
2023/09/16 01:39:08;;;;;;;3.50;2.75;;;;;;;13.09;89.46;101308.44;5015187;28;20116;-80
2023/09/16 01:41:34;;;;;;;3.47;2.80;;;;;;;13.07;89.59;101311.06;5014737;28;20032;-80
2023/09/16 01:44:01;;;;;;;3.28;2.58;;;;;;;13.03;89.52;101304.19;5013977;28;20100;-80
2023/09/16 01:46:27;;;;;;;4.07;2.90;;;;;;;13.03;89.65;101306.81;5013899;28;20112;-80
2023/09/16 01:48:52;;;;;;;3.87;2.93;;;;;;;12.98;89.96;101306.00;5013877;28;20065;-80
2023/09/16 01:51:18;;;;;;;3.90;3.00;;;;;;;13.00;89.84;101301.63;5013376;28;20116;-80
2023/09/16 01:53:43;;;;;;;4.67;3.00;;;;;;;12.91;89.63;101291.38;5013802;28;20044;-80
2023/09/16 01:56:08;;;;;;;3.67;2.90;;;;;;;12.94;89.84;101286.13;5013461;28;20077;-80
2023/09/16 01:58:38;;;;;;;4.30;2.83;;;;;;;12.97;89.78;101294.75;5013786;28;20053;-80
2023/09/16 02:01:11;;;;;;;3.83;2.92;;;;;;;12.95;89.97;101291.31;5013477;28;20092;-80
2023/09/16 02:03:37;;;;;;;3.45;2.78;;;;;;;12.91;89.91;101297.44;5013657;28;20018;-80
2023/09/16 02:06:02;;;;;;;5.70;3.03;;;;;;;12.90;90.11;101298.31;5012783;28;20375;-80
2023/09/16 02:08:27;;;;;;;4.33;2.80;;;;;;;12.91;89.91;101305.25;5013634;28;20018;-80
2023/09/16 02:10:53;;;;;;;3.23;2.77;;;;;;;12.87;90.19;101285.38;5014314;28;20483;-80
2023/09/16 02:13:18;;;;;;;4.23;3.13;;;;;;;12.88;90.16;101296.63;5012520;28;20033;-80
2023/09/16 02:15:43;;;;;;;3.73;2.77;;;;;;;12.89;90.10;101303.56;5013768;28;20021;-81
2023/09/16 02:18:09;;;;;;;3.63;2.70;;;;;;;12.87;90.35;101298.41;5013538;28;20037;-80
2023/09/16 02:20:34;;;;;;;3.50;2.80;;;;;;;12.88;90.22;101296.63;5012704;28;20018;-80
2023/09/16 02:23:02;;;;;;;3.13;2.73;;;;;;;12.89;90.29;101301.81;5013407;28;20111;-81
2023/09/16 02:25:27;;;;;;;3.35;2.70;;;;;;;12.89;90.46;101293.16;5013150;28;20394;-81
2023/09/16 02:27:52;;;;;;;3.17;2.60;;;;;;;12.87;90.49;101295.78;5012737;28;20038;-80
2023/09/16 02:30:18;;;;;;;3.70;2.80;;;;;;;12.86;90.36;101294.06;5014134;28;20032;-80
2023/09/16 02:32:43;;;;;;;3.50;2.80;;;;;;;12.87;90.66;101292.31;5013472;28;20026;-80
2023/09/16 02:35:08;;;;;;;3.37;2.70;;;;;;;12.85;90.73;101286.28;5012506;28;20041;-80
2023/09/16 02:37:34;;;;;;;3.93;2.80;;;;;;;12.86;90.68;101288.00;5013205;28;20059;-80
2023/09/16 02:39:59;;;;;;;3.40;2.53;;;;;;;12.82;91.05;101282.84;5012883;28;20038;-80
2023/09/16 02:42:30;;;;;;;3.90;2.93;;;;;;;12.82;90.77;101288.06;5013193;28;20105;-80
2023/09/16 02:44:55;;;;;;;3.65;2.70;;;;;;;12.77;91.07;101273.41;5013125;28;20084;-80
2023/09/16 02:47:23;;;;;;;3.77;2.80;;;;;;;12.80;90.93;101287.22;5011641;28;20029;-80
2023/09/16 02:49:49;;;;;;;3.92;2.65;;;;;;;12.74;91.12;101279.50;5013548;28;20025;-80
2023/09/16 02:52:15;;;;;;;3.50;2.90;;;;;;;12.76;91.20;101287.31;5012834;28;20367;-80
2023/09/16 02:54:41;;;;;;;;;;;;;;;12.76;91.12;101287.31;5012545;28;20121;-81
2023/09/16 02:57:06;;;;;;;3.30;2.80;;;;;;;12.74;91.34;101289.91;5012145;28;20028;-80
2023/09/16 02:59:31;;;;;;;2.80;2.50;;;;;;;12.70;91.35;101282.19;5013165;28;20056;-80
2023/09/16 03:01:57;;;;;;;3.03;2.50;;;;;;;12.67;91.13;101285.72;5012913;28;20037;-80
2023/09/16 03:04:22;;;;;;;2.97;2.60;;;;;;;12.65;91.43;101285.75;5012717;28;20072;-80
2023/09/16 03:06:48;;;;;;;2.80;2.50;;;;;;;12.66;91.57;101295.28;5013287;28;20121;-80
2023/09/16 03:09:14;;;;;;;2.97;2.47;;;;;;;12.59;91.28;101283.22;5012221;28;20025;-81
2023/09/16 03:11:40;;;;;;;3.28;2.63;;;;;;;12.61;91.46;101284.06;5013573;28;20045;-80
2023/09/16 03:14:05;;;;;;;2.90;2.57;;;;;;;12.58;91.57;101278.06;5012724;28;20026;-80
2023/09/16 03:16:31;;;;;;;2.90;2.47;;;;;;;12.56;91.94;101265.06;5013258;28;20026;-80
2023/09/16 03:18:57;;;;;;;3.75;2.75;;;;;;;12.59;91.72;101282.38;5013300;28;20030;-80
2023/09/16 03:21:25;;;;;;;3.20;2.60;;;;;;;12.59;92.22;101274.56;5012945;28;20100;-80
2023/09/16 03:23:50;;;;;;;3.20;2.70;;;;;;;12.58;92.33;101270.25;5012205;28;20528;-81
2023/09/16 03:26:16;;;;;;;3.30;2.60;;;;;;;12.45;91.96;101260.03;5015458;28;20189;-81
2023/09/16 03:28:46;;;;;;;3.27;2.70;;;;;;;12.57;92.13;101278.94;5016361;28;20364;-81
2023/09/16 03:31:12;;;;;;;3.38;2.75;;;;;;;12.56;92.49;101270.25;5015636;28;20022;-80
2023/09/16 03:33:38;;;;;;;2.90;2.50;;;;;;;12.51;92.42;101270.34;5016729;28;20390;-80
2023/09/16 03:36:07;;;;;;;3.20;2.50;;;;;;;12.53;92.52;101272.94;5016250;28;20045;-80
2023/09/16 03:38:33;;;;;;;3.85;2.70;;;;;;;12.54;92.40;101271.19;5016631;28;20037;-80
2023/09/16 03:40:59;;;;;;;;;;;;;;;12.54;92.40;101271.19;5016908;28;20036;-80
2023/09/16 03:43:25;;;;;;;3.40;2.80;;;;;;;12.49;92.38;101268.66;5015178;28;19922;-80
2023/09/16 03:45:50;;;;;;;3.53;2.70;;;;;;;12.47;92.70;101271.28;5016553;28;20051;-80
2023/09/16 03:48:16;;;;;;;3.23;2.50;;;;;;;12.46;92.64;101268.69;5015956;28;20080;-80
2023/09/16 03:50:41;;;;;;;3.30;2.57;;;;;;;12.38;92.83;101253.22;5015820;28;20022;-80
2023/09/16 03:53:06;;;;;;;2.77;2.40;;;;;;;12.43;92.51;101261.81;5016730;28;20066;-80
2023/09/16 03:55:32;;;;;;;3.53;2.77;;;;;;;12.44;92.69;101260.91;5016019;28;20046;-80
2023/09/16 03:57:57;;;;;;;3.03;2.50;;;;;;;12.41;92.83;101255.75;5015278;28;20029;-80
2023/09/16 04:00:23;;;;;;;3.00;2.60;;;;;;;12.40;92.34;101253.19;5015891;28;20467;-80
2023/09/16 04:02:48;;;;;;;2.90;2.60;;;;;;;12.38;92.99;101255.84;5016422;28;20025;-80
2023/09/16 04:05:14;;;;;;;3.63;2.70;;;;;;;12.32;92.81;101242.91;5015010;28;20026;-80
2023/09/16 04:07:43;;;;;;;4.70;2.90;;;;;;;12.38;92.93;101265.38;5015847;28;20030;-80
2023/09/16 04:10:08;;;;;;;4.35;2.88;;;;;;;12.40;92.87;101259.25;5015638;28;20503;-80
2023/09/16 04:12:34;;;;;;;4.23;2.90;;;;;;;12.36;92.89;101255.00;5014577;28;20080;-80
2023/09/16 04:14:59;;;;;;;4.97;2.97;;;;;;;12.39;92.92;101261.88;5015747;28;20022;-80
2023/09/16 04:17:25;;;;;;;3.63;2.73;;;;;;;12.37;92.90;101259.31;5015681;28;20113;-80
2023/09/16 04:19:50;;;;;;;3.57;2.80;;;;;;;12.35;92.98;101251.50;5014864;28;20037;-80
2023/09/16 04:22:15;;;;;;;3.47;2.70;;;;;;;12.37;92.92;101259.31;5015642;28;20125;-80
2023/09/16 04:24:40;;;;;;;3.17;2.80;;;;;;;12.37;93.17;101267.13;5016034;28;20104;-80
2023/09/16 04:27:06;;;;;;;5.50;2.80;;;;;;;12.38;93.25;101255.84;5014675;28;20041;-80
2023/09/16 04:29:31;;;;;;;3.77;2.70;;;;;;;12.34;93.19;101256.75;5015698;28;20026;-80
2023/09/16 04:31:56;;;;;;;3.63;2.73;;;;;;;12.34;93.48;101252.38;5016411;28;20451;-80
2023/09/16 04:34:22;;;;;;;3.20;2.70;;;;;;;12.36;93.18;101260.19;5015476;28;20030;-80
2023/09/16 04:36:48;;;;;;;4.33;2.93;;;;;;;12.33;93.25;101253.28;5015738;28;20014;-80
2023/09/16 04:39:14;;;;;;;3.30;2.78;;;;;;;12.33;93.32;101252.44;5015170;28;20053;-80
2023/09/16 04:41:40;;;;;;;3.60;2.70;;;;;;;12.32;93.34;101245.50;5014348;28;20034;-80
2023/09/16 04:44:08;;;;;;;3.73;2.93;;;;;;;12.33;93.57;101249.81;5015296;28;20018;-80
2023/09/16 04:46:33;;;;;;;4.13;2.60;;;;;;;12.32;93.45;101254.19;5014943;28;20069;-80
2023/09/16 04:48:58;;;;;;;3.77;2.70;;;;;;;12.30;93.42;101248.13;5015550;28;20050;-80
2023/09/16 04:51:24;;;;;;;3.20;2.70;;;;;;;12.32;93.57;101245.50;5014864;28;20030;-80
2023/09/16 04:53:50;;;;;;;3.27;2.30;;;;;;;12.28;94.13;101243.81;5014268;28;20029;-80
2023/09/16 04:56:15;;;;;;;2.67;2.33;;;;;;;12.28;93.92;101247.31;5015786;28;20068;-80
2023/09/16 04:58:40;;;;;;;3.93;2.97;;;;;;;12.32;93.70;101248.97;5014977;28;20475;-81
2023/09/16 05:01:07;;;;;;;3.27;2.60;;;;;;;12.29;93.68;101240.34;5014126;28;20088;-80
2023/09/16 05:03:32;;;;;;;4.47;3.03;;;;;;;12.33;93.42;101250.66;5015222;28;20541;-80
2023/09/16 05:05:58;;;;;;;3.50;2.80;;;;;;;12.36;93.73;101252.38;5015461;28;20022;-80
2023/09/16 05:08:23;;;;;;;3.23;2.70;;;;;;;12.34;93.81;101248.94;5014444;28;20030;-80
2023/09/16 05:10:55;;;;;;;3.60;2.70;;;;;;;12.35;94.02;101253.28;5014620;28;20038;-80
2023/09/16 05:13:21;;;;;;;3.22;2.70;;;;;;;12.34;93.65;101254.16;5014308;28;20436;-80
2023/09/16 05:15:50;;;;;;;3.28;2.65;;;;;;;12.34;93.96;101259.34;5013818;28;20030;-80
2023/09/16 05:18:16;;;;;;;3.67;2.70;;;;;;;12.31;94.06;101243.78;5014347;28;20445;-80
2023/09/16 05:20:42;;;;;;;3.40;2.63;;;;;;;12.29;93.91;101251.63;5015216;28;20406;-80
2023/09/16 05:23:13;;;;;;;3.77;2.70;;;;;;;12.32;94.01;101255.91;5013309;28;20034;-80
2023/09/16 05:25:46;;;;;;;3.42;2.58;;;;;;;12.30;94.17;101261.16;5014766;28;20028;-80
2023/09/16 05:28:11;;;;;;;4.60;2.88;;;;;;;12.24;93.96;101248.22;5013901;28;20037;-81
2023/09/16 05:30:37;;;;;;;3.27;2.50;;;;;;;12.27;94.18;101252.53;5013496;28;20426;-81
2023/09/16 05:33:02;;;;;;;3.93;2.77;;;;;;;12.30;94.13;101262.88;5013942;28;20024;-81
2023/09/16 05:35:27;;;;;;;3.67;2.70;;;;;;;12.27;94.61;101249.94;5014147;28;20025;-81
2023/09/16 05:37:53;;;;;;;3.77;2.80;;;;;;;12.29;94.52;101248.13;5013812;28;20072;-81
2023/09/16 05:40:19;;;;;;;3.30;2.80;;;;;;;12.33;94.49;101255.03;5013731;28;20060;-81
2023/09/16 05:42:45;;;;;;;3.97;2.70;;;;;;;12.34;94.50;101252.38;5013753;28;20438;-78
2023/09/16 05:45:10;;;;;;;3.75;2.80;;;;;;;12.38;94.23;101249.75;5014503;28;20033;-80
2023/09/16 05:47:39;;;;;;;3.43;2.70;;;;;;;12.40;94.66;101250.59;5013837;28;20471;-81
2023/09/16 05:50:04;;;;;;;3.97;2.80;;;;;;;12.43;94.61;101254.00;5013425;28;20076;-81
2023/09/16 05:52:30;;;;;;;3.80;2.73;;;;;;;12.44;94.53;101254.88;5013383;28;20033;-81
2023/09/16 05:54:58;;;;;;;4.07;3.00;;;;;;;12.49;94.76;101260.84;5014544;28;20045;-81
2023/09/16 05:57:23;;;;;;;3.50;2.80;;;;;;;12.50;94.70;101259.97;5013657;28;20038;-80
2023/09/16 05:59:49;;;;;;;4.43;2.80;;;;;;;12.53;94.65;101257.31;5014426;28;20025;-81
2023/09/16 06:02:16;;;;;;;3.20;2.50;;;;;;;12.54;94.98;101252.94;5014048;28;20571;-81
2023/09/16 06:04:41;;;;;;;3.17;2.60;;;;;;;12.59;94.98;101253.75;5013096;28;20026;-81
2023/09/16 06:07:07;;;;;;;3.03;2.40;;;;;;;12.60;95.20;101255.47;5013332;28;20090;-81
2023/09/16 06:09:32;;;;;;;2.47;2.23;;;;;;;12.65;95.61;101261.44;5014265;28;20032;-82
2023/09/16 06:11:57;;;;;;;2.57;2.27;;;;;;;12.67;95.46;101259.69;5013650;28;20498;-81
2023/09/16 06:14:22;;;;;;;2.60;2.40;;;;;;;12.73;95.43;101256.09;5013514;28;20459;-81
2023/09/16 06:16:48;;;;;;;2.67;2.30;;;;;;;12.79;95.71;101264.66;5013542;28;20030;-81
2023/09/16 06:19:13;;;;;;;2.30;2.10;;;;;;;12.83;96.31;101263.72;5012712;28;20030;-81
2023/09/16 06:21:39;;;;;;;2.67;2.07;;;;;;;12.87;97.84;101258.44;5013648;28;20033;-81
2023/09/16 06:24:05;;;;;;;2.20;2.00;;;;;;;12.91;96.59;101263.56;5014093;28;20088;-81
2023/09/16 06:26:31;;;;;;;2.42;2.00;;;;;;;12.96;96.32;101266.09;5013748;28;20386;-81
2023/09/16 06:28:56;;;;;;;2.30;2.10;;;;;;;13.05;96.33;101263.34;5013572;28;20018;-81
2023/09/16 06:31:21;;;;;;;2.50;2.30;;;;;;;13.10;96.72;101271.91;5013028;28;20377;-81
2023/09/16 06:33:49;;;;;;;2.33;2.00;;;;;;;13.19;97.82;101270.00;5012683;28;20025;-81
2023/09/16 06:36:14;;;;;;;2.40;2.17;;;;;;;13.25;97.87;101270.75;5012590;28;20471;-81
2023/09/16 06:38:40;;;;;;;3.43;2.40;;;;;;;13.35;98.36;101267.97;5013604;28;20041;-81
2023/09/16 06:41:05;;;;;;;2.60;2.23;;;;;;;13.42;99.44;101270.44;5012719;28;20044;-81
2023/09/16 06:43:32;;;;;;;2.60;2.20;;;;;;;13.53;98.56;101277.19;5013137;28;20033;-80
2023/09/16 06:46:00;;;;;;;1.92;1.80;;;;;;;13.89;99.49;101267.75;5013046;28;20022;-80
2023/09/16 06:48:26;;;;;;;2.13;1.90;;;;;;;15.36;100.00;101271.03;5012034;28;20136;-81
2023/09/16 06:50:51;;;;;;;2.30;2.00;;;;;;;17.46;99.42;101270.38;5012887;28;20041;-80
2023/09/16 06:53:17;;;;;;;2.83;2.30;;;;;;;19.43;94.68;101275.47;5012172;28;20022;-81
2023/09/16 06:55:42;;;;;;;3.77;2.60;;;;;;;21.05;85.96;101285.22;5013166;28;20129;-80
2023/09/16 06:58:07;;;;;;;4.63;3.10;;;;;;;22.49;76.15;101289.72;5012891;28;20022;-81
2023/09/16 07:00:33;;;;;;;4.30;2.57;;;;;;;23.34;76.49;101283.75;5015683;28;20068;-81
2023/09/16 07:02:58;;;;;;;3.60;2.57;;;;;;;24.00;70.42;101294.63;5017370;28;20105;-82
2023/09/16 07:05:24;;;;;;;9.60;4.83;;;;;;;24.19;69.97;101278.38;5016165;28;20030;-82
2023/09/16 07:07:52;;;;;;;8.85;4.93;;;;;;;23.97;66.68;101274.47;5016116;28;20022;-80
2023/09/16 07:10:18;;;;;;;7.32;4.45;;;;;;;23.23;69.43;101284.44;5017098;28;20061;-80
2023/09/16 07:12:43;;;;;;;4.07;3.30;;;;;;;22.28;67.08;101286.47;5016715;28;20113;-81
2023/09/16 07:15:09;;;;;;;6.30;3.70;;;;;;;21.37;72.48;101277.38;5015836;28;20105;-80
2023/09/16 07:17:35;;;;;;;6.22;3.60;;;;;;;20.52;73.47;101264.13;5016260;28;20033;-81
2023/09/16 07:20:03;;;;;;;9.10;5.03;;;;;;;19.85;73.05;101276.19;5016626;28;20538;-80
2023/09/16 07:22:28;;;;;;;12.25;7.03;;;;;;;19.10;76.08;101273.44;5015713;28;20453;-80
2023/09/16 07:24:54;;;;;;;13.90;7.43;;;;;;;18.44;78.65;101266.59;5016530;28;20090;-80
2023/09/16 07:27:19;;;;;;;10.10;5.83;;;;;;;18.13;80.41;101273.94;5016517;28;20026;-80
2023/09/16 07:29:45;;;;;;;8.27;5.10;;;;;;;17.84;82.19;101273.31;5016399;28;20034;-81
2023/09/16 07:32:10;;;;;;;12.93;7.37;;;;;;;17.58;83.95;101274.28;5015736;28;20490;-80
2023/09/16 07:34:35;;;;;;;19.37;11.60;;;;;;;17.18;86.28;101267.91;5015765;28;20026;-80
2023/09/16 07:37:03;;;;;;;18.43;10.40;;;;;;;17.05;86.96;101276.22;5015514;28;20426;-80
2023/09/16 07:39:28;;;;;;;14.32;8.50;;;;;;;16.95;88.03;101272.19;5016319;28;20022;-80
2023/09/16 07:41:53;;;;;;;17.90;9.90;;;;;;;16.89;87.82;101272.41;5016553;28;20109;-80
2023/09/16 07:44:19;;;;;;;13.20;7.27;;;;;;;16.92;87.50;101272.28;5015165;28;20030;-80
2023/09/16 07:46:45;;;;;;;9.13;5.90;;;;;;;16.98;88.07;101274.72;5015878;28;20022;-80
2023/09/16 07:49:11;;;;;;;9.23;5.30;;;;;;;17.04;87.68;101281.53;5015153;28;20065;-80
2023/09/16 07:51:39;;;;;;;8.07;4.80;;;;;;;17.05;87.62;101278.00;5014914;28;20026;-80
2023/09/16 07:54:10;;;;;;;9.25;5.10;;;;;;;17.08;88.24;101278.72;5015777;28;20029;-80
2023/09/16 07:56:36;;;;;;;5.85;4.05;;;;;;;17.08;87.51;101280.47;5014985;28;20049;-80
2023/09/16 07:59:01;;;;;;;11.27;6.53;;;;;;;17.09;89.88;101280.44;5015197;28;20422;-81
2023/09/16 08:01:29;;;;;;;16.33;9.47;;;;;;;17.14;89.27;101285.53;5015931;28;20017;-81
2023/09/16 08:03:54;;;;;;;12.88;6.85;;;;;;;17.21;88.67;101280.91;5015322;28;20030;-81
2023/09/16 08:06:19;;;;;;;12.40;7.30;;;;;;;17.31;89.57;101279.66;5015175;28;20109;-82
2023/09/16 08:08:45;;;;;;;17.43;11.00;;;;;;;17.37;88.61;101287.28;5015813;28;20029;-81
2023/09/16 08:11:17;;;;;;;19.97;11.60;;;;;;;17.42;88.85;101288.00;5014359;28;20018;-81
2023/09/16 08:13:42;;;;;;;18.73;9.38;;;;;;;17.49;89.82;101288.63;5016343;28;20052;-81
2023/09/16 08:16:07;;;;;;;14.60;7.90;;;;;;;17.60;88.59;101291.72;5015406;28;20045;-81
2023/09/16 08:18:32;;;;;;;12.60;6.97;;;;;;;17.68;89.49;101286.13;5015767;28;20454;-81
2023/09/16 08:21:01;;;;;;;11.00;6.63;;;;;;;17.80;88.68;101292.72;5015117;28;20038;-81
2023/09/16 08:23:26;;;;;;;7.50;4.80;;;;;;;17.93;88.67;101293.06;5015448;28;20026;-81
2023/09/16 08:25:51;;;;;;;7.20;4.97;;;;;;;18.03;88.56;101283.94;5015033;28;20022;-80
2023/09/16 08:28:17;;;;;;;9.60;5.00;;;;;;;18.11;88.10;101288.06;5014855;28;20133;-80
2023/09/16 08:30:42;;;;;;;11.73;5.77;;;;;;;18.24;87.64;101297.13;5015232;28;20083;-80
2023/09/16 08:33:09;;;;;;;7.33;4.50;;;;;;;18.35;87.90;101296.72;5013885;28;20026;-80
2023/09/16 08:35:35;;;;;;;12.77;7.10;;;;;;;18.40;86.21;101302.66;5015114;28;20533;-80
2023/09/16 08:38:01;;;;;;;19.42;12.35;;;;;;;18.39;85.13;101295.69;5014927;28;20038;-82
2023/09/16 08:40:29;;;;;;;16.23;8.77;;;;;;;18.47;85.62;101309.34;5014114;28;20379;-82
2023/09/16 08:43:08;;;;;;;10.85;6.43;;;;;;;18.66;87.01;101305.94;5014883;28;20026;-82
2023/09/16 08:45:38;;;;;;;11.57;6.53;;;;;;;18.85;84.84;101303.41;5013998;28;20467;-80
2023/09/16 08:48:05;;;;;;;17.15;9.52;;;;;;;19.01;81.59;101310.69;5014270;28;20038;-81
2023/09/16 08:50:32;;;;;;;13.52;8.13;;;;;;;19.09;83.14;101305.94;5014164;28;20037;-82
2023/09/16 08:53:02;;;;;;;9.70;5.78;;;;;;;19.25;84.18;101314.84;5014018;28;20108;-82
2023/09/16 08:55:27;;;;;;;14.60;8.23;;;;;;;19.38;79.55;101317.78;5014305;28;20161;-82
2023/09/16 08:58:09;;;;;;;18.80;11.27;;;;;;;19.42;80.79;101318.50;5014281;28;20064;-82
2023/09/16 09:00:38;;;;;;;18.23;9.98;;;;;;;19.48;80.96;101322.63;5013733;28;20086;-83
2023/09/16 09:03:04;;;;;;;11.70;6.72;;;;;;;19.54;82.38;101317.94;5014202;28;20079;-82
2023/09/16 09:05:33;;;;;;;8.73;5.50;;;;;;;19.72;84.22;101320.66;5014518;28;20022;-83
2023/09/16 09:07:58;;;;;;;11.32;6.60;;;;;;;19.84;81.55;101313.97;5013412;28;20045;-82
2023/09/16 09:10:24;;;;;;;12.47;7.00;;;;;;;19.94;80.38;101317.03;5014100;28;20026;-82
2023/09/16 09:12:50;;;;;;;9.17;5.83;;;;;;;20.03;80.47;101312.19;5014479;28;20056;-84
2023/09/16 09:15:15;;;;;;;11.43;6.45;;;;;;;20.18;79.67;101317.66;5013149;28;20029;-83
2023/09/16 09:17:44;;;;;;;16.53;9.40;;;;;;;20.24;75.78;101317.34;5014127;28;20385;-83
2023/09/16 09:20:18;;;;;;;17.83;9.80;;;;;;;20.27;76.82;101325.13;5013667;28;20076;-82
2023/09/16 09:22:44;;;;;;;11.75;6.70;;;;;;;20.38;78.41;101321.94;5013291;28;20030;-82
2023/09/16 09:25:10;;;;;;;8.85;5.07;;;;;;;20.56;79.28;101330.72;5013540;28;20101;-82
2023/09/16 09:27:35;;;;;;;6.03;4.03;;;;;;;20.72;78.26;101329.97;5013635;28;20120;-82
2023/09/16 09:30:01;;;;;;;5.33;3.80;;;;;;;20.85;78.31;101332.88;5013235;28;20105;-82
2023/09/16 09:32:31;;;;;;;8.52;5.18;;;;;;;20.87;73.69;101339.78;5013373;28;20033;-82
2023/09/16 09:34:57;;;;;;;9.68;5.70;;;;;;;20.96;77.38;101335.81;5013258;28;20088;-82
2023/09/16 09:37:22;;;;;;;10.77;6.30;;;;;;;21.07;74.70;101335.28;5013305;28;20025;-83
2023/09/16 09:40:14;;;;;;;10.17;5.73;;;;;;;21.27;76.43;101327.16;5013492;28;20040;-82
2023/09/16 09:42:40;;;;;;;8.45;5.13;;;;;;;21.44;72.63;101338.63;5013192;28;20041;-82
2023/09/16 09:45:09;;;;;;;15.57;8.18;;;;;;;21.37;71.34;101342.50;5013468;28;20030;-81
2023/09/16 09:47:36;;;;;;;10.77;5.95;;;;;;;21.40;74.21;101356.38;5013524;28;20042;-82
2023/09/16 09:50:03;;;;;;;12.63;7.30;;;;;;;21.39;72.11;101343.28;5012791;28;20356;-81
2023/09/16 09:52:35;;;;;;;8.63;5.10;;;;;;;21.40;72.48;101335.25;5013669;28;20105;-82
2023/09/16 09:55:01;;;;;;;11.73;6.47;;;;;;;21.47;70.75;101340.25;5013222;28;20104;-81
2023/09/16 09:57:27;;;;;;;11.95;6.40;;;;;;;21.49;69.83;101339.22;5012696;28;20391;-81
2023/09/16 09:59:52;;;;;;;15.45;8.35;;;;;;;21.51;69.00;101337.34;5013220;28;20053;-81
2023/09/16 10:02:18;;;;;;;11.80;5.90;;;;;;;21.66;72.93;101334.84;5013335;28;20180;-81
2023/09/16 10:04:43;;;;;;;11.93;6.50;;;;;;;21.83;70.96;101339.22;5012657;28;20036;-81
2023/09/16 10:07:08;;;;;;;9.03;5.10;;;;;;;22.02;70.51;101336.38;5013157;28;20112;-81
2023/09/16 10:09:33;;;;;;;15.83;8.77;;;;;;;22.19;67.05;101327.50;5013451;28;20036;-80
2023/09/16 10:12:01;;;;;;;13.83;7.13;;;;;;;22.34;68.69;101331.94;5012227;28;20540;-81
2023/09/16 10:14:27;;;;;;;12.00;7.15;;;;;;;22.47;65.21;101337.38;5012836;28;20467;-81
2023/09/16 10:16:52;;;;;;;12.43;7.13;;;;;;;22.50;68.52;101329.28;5013919;28;20026;-81
2023/09/16 10:19:21;;;;;;;13.45;6.95;;;;;;;22.53;68.49;101325.59;5012671;28;20030;-81
2023/09/16 10:21:46;;;;;;;9.70;5.72;;;;;;;22.72;66.95;101333.31;5013163;28;20101;-80
2023/09/16 10:24:12;;;;;;;11.10;6.37;;;;;;;22.92;65.30;101323.31;5012157;28;20530;-80
2023/09/16 10:26:38;;;;;;;10.07;6.28;;;;;;;22.94;67.72;101322.31;5013196;28;20026;-80
2023/09/16 10:29:05;;;;;;;6.32;4.40;;;;;;;23.10;69.09;101324.00;5012972;28;20378;-81
2023/09/16 10:31:31;;;;;;;;;;;;;;;23.28;63.90;101330.00;5012515;28;20018;-81
2023/09/16 10:33:57;;;;;;;8.98;5.30;;;;;;;23.36;67.49;101326.91;5012430;28;19984;-82
2023/09/16 10:36:24;;;;;;;13.93;7.28;;;;;;;23.37;65.33;101320.66;5012525;28;20068;-82
2023/09/16 10:38:50;;;;;;;9.07;5.10;;;;;;;23.46;67.15;101317.44;5012139;28;20030;-81
2023/09/16 10:41:16;;;;;;;5.45;3.70;;;;;;;23.66;68.75;101317.97;5012675;28;20032;-82
2023/09/16 10:43:46;;;;;;;5.57;3.67;;;;;;;23.79;62.79;101326.84;5012883;28;20022;-82
2023/09/16 10:46:12;;;;;;;15.65;8.15;;;;;;;23.65;61.85;101318.91;5011537;28;20056;-81
2023/09/16 10:48:37;;;;;;;;;;;;;;;23.58;63.88;101314.00;5013058;28;20112;-81
2023/09/16 10:51:08;;;;;;;11.07;6.68;;;;;;;23.57;64.09;101317.59;5003949;28;20032;-82
2023/09/16 10:53:36;;;;;;;8.15;4.82;;;;;;;23.65;65.12;101309.19;5008808;28;20022;-81
2023/09/16 10:56:11;;;;;;;17.08;9.57;;;;;;;23.49;62.32;101304.00;5012293;28;20065;-81
2023/09/16 10:58:42;;;;;;;16.23;8.55;;;;;;;23.37;62.35;101308.25;5009990;28;20044;-81
2023/09/16 11:01:13;;;;;;;14.70;8.30;;;;;;;23.33;62.88;101306.75;4992608;28;20057;-82
2023/09/16 11:03:46;;;;;;;11.43;6.90;;;;;;;23.44;64.27;101299.00;4993719;28;20030;-82
2023/09/16 11:06:12;;;;;;;15.13;7.47;;;;;;;23.57;62.81;101301.72;4993232;28;20030;-82
2023/09/16 11:08:39;;;;;;;16.42;9.00;;;;;;;23.59;62.75;101305.13;4993549;28;20030;-81
2023/09/16 11:11:05;;;;;;;13.55;7.50;;;;;;;23.69;63.11;101299.22;4993410;28;20041;-84
2023/09/16 11:13:30;;;;;;;10.40;6.37;;;;;;;23.86;64.40;101296.38;4992083;28;20034;-83
2023/09/16 11:15:59;;;;;;;14.70;8.40;;;;;;;23.93;61.96;101294.16;4993240;28;20041;-82
2023/09/16 11:18:24;;;;;;;12.55;7.15;;;;;;;23.97;63.38;101298.34;4992933;28;20172;-82
2023/09/16 11:20:50;;;;;;;15.63;8.77;;;;;;;23.98;62.33;101297.38;5002374;28;20506;-83